METAR rapporten vliegvelden

   
LEMG - Malaga
Gewijzigd: 18-10-2018 16:30
Gedeeltelijk bewolkt  
Gedeeltelijk bewolkt  
   Wind: ZZO 11.1 km/h
Wind: ZZO 11.1 km/h
Temperatuur: 19°C
Dauwpunt: 11°C
Vochtigheid: 60%
Barometer: 1008 hPa
Bewolking: Gedeeltelijk bewolkt
Zicht: meer dan 10 km
Bewolking: Licht bewolkt 2000 ft,
Gedeeltelijk bewolkt 3000 ft,
Licht bewolkt 4000 ft
LEMG 181430Z 15006KT 100V210 9999 FEW020 SCT030 FEW040TCU 19/11 Q1008 NOSIG
LEAL - Alicante
Gewijzigd: 18-10-2018 16:30
Grotendeels bewolkt  
Grotendeels bewolkt  
   Wind: NNO 9.3 km/h
Wind: NNO 9.3 km/h
Temperatuur: 22°C
Dauwpunt: 13°C
Vochtigheid: 57%
Barometer: 1007 hPa
Bewolking: Grotendeels bewolkt
Zicht: meer dan 10 km
Bewolking: Licht bewolkt 800 ft,
Grotendeels bewolkt 6000 ft
LEAL 181430Z 02005KT 340V120 9999 FEW008 BKN060 22/13 Q1007 NOSIG
LEBB - Bilbao
Gewijzigd: 18-10-2018 16:30
Wat regen mogelijk, Nevel, Grotendeels bewolkt  
Wat regen mogelijk, Nevel, Grotendeels bewolkt  
   Wind: varieert 1.9 km/h
Wind: varieert 1.9 km/h
Temperatuur: 17°C
Dauwpunt: 17°C
Vochtigheid: 100%
Barometer: 1016 hPa
Bewolking: Grotendeels bewolkt
Zicht: 4 km
Bewolking: Gedeeltelijk bewolkt 400 ft,
Grotendeels bewolkt 1000 ft,
Grotendeels bewolkt 2200 ft
LEBB 181430Z VRB01KT 4000 -RA BR SCT004 BKN010 BKN022 17/17 Q1016 TEMPO 5000 BR BKN015
GCTS - Tenerife
Gewijzigd: 18-10-2018 16:30
Bewolking  
Bewolking  
   Wind: Oosten 40.7 km/h
Wind: Oosten 40.7 km/h
Temperatuur: 24°C
Dauwpunt: 14°C
Vochtigheid: 54%
Barometer: 1017 hPa
Bewolking: Bewolking
Zicht: meer dan 10 km
Bewolking: Grotendeels bewolkt 4000 ft,
Bewolking 4800 ft
GCTS 181430Z 08022KT 9999 BKN040 OVC048 24/14 Q1017 NOSIG
EIDW - Dublin
Gewijzigd: 18-10-2018 16:30
Licht bewolkt  
Licht bewolkt  
   Wind: ZO 11.1 km/h
Wind: ZO 11.1 km/h
Temperatuur: 12°C
Dauwpunt: 4°C
Vochtigheid: 58%
Barometer: 1027 hPa
Bewolking: Licht bewolkt
Zicht: meer dan 10 km
Bewolking: Licht bewolkt 2000 ft
EIDW 181430Z 14006KT 100V170 9999 FEW020 12/04 Q1027 NOSIG
LPFR - Albufeira
Gewijzigd: 18-10-2018 16:30
Grotendeels bewolkt  
Grotendeels bewolkt  
   Wind: NNO 13 km/h
Wind: NNO 13 km/h
Temperatuur: 18°C
Dauwpunt: 11°C
Vochtigheid: 64%
Barometer: 1007 hPa
Bewolking: Grotendeels bewolkt
Zicht: meer dan 10 km
Bewolking: Licht bewolkt 2000 ft,
Grotendeels bewolkt 3000 ft
LPFR 181430Z 02007KT 350V070 9999 FEW020 BKN030 18/11 Q1007

Script ontwikkeld door  Saratoga-weather.org Aangepast voor de template door  Weerstation Leuven

U vindt ons ook hier:

Het Weer Aktueel

European Weather Network

WeatherCloud

Weather Underground

Benelux Weer Netwerk

WeatherlinkIP

Apparatuur in gebruik:

Weerstation
Davis VP2

Weerprogramma
consoleWD

Weercomputer
Raspberry

Gesponsord door
Stef van Bakel koeltechniek

Davis VP2

consoleWD

Raspberry

Stef van Bakel koeltechniek